sensor_id;sensor_type;location;lat;lon;timestamp;pressure;altitude;pressure_sealevel;temperature;humidity
40592;BME280;26301;42.832;23.918;2024-01-30T00:01:04;95084.94;;;-2.89;86.61
40592;BME280;26301;42.832;23.918;2024-01-30T00:03:30;95091.91;;;-2.80;86.66
40592;BME280;26301;42.832;23.918;2024-01-30T00:05:55;95093.50;;;-2.79;86.31
40592;BME280;26301;42.832;23.918;2024-01-30T00:08:24;95082.09;;;-2.84;86.07
40592;BME280;26301;42.832;23.918;2024-01-30T00:10:49;95090.97;;;-2.79;86.03
40592;BME280;26301;42.832;23.918;2024-01-30T00:13:14;95046.81;;;-2.99;85.37
40592;BME280;26301;42.832;23.918;2024-01-30T00:15:42;95070.97;;;-2.82;85.71
40592;BME280;26301;42.832;23.918;2024-01-30T00:18:08;95041.78;;;-2.99;84.98
40592;BME280;26301;42.832;23.918;2024-01-30T00:20:33;95086.59;;;-2.64;84.58
40592;BME280;26301;42.832;23.918;2024-01-30T00:22:59;95051.03;;;-2.86;84.99
40592;BME280;26301;42.832;23.918;2024-01-30T00:25:24;95027.31;;;-2.96;84.65
40592;BME280;26301;42.832;23.918;2024-01-30T00:27:50;95074.81;;;-2.65;83.06
40592;BME280;26301;42.832;23.918;2024-01-30T00:30:15;95083.72;;;-2.59;82.42
40592;BME280;26301;42.832;23.918;2024-01-30T00:32:40;95066.22;;;-2.62;82.52
40592;BME280;26301;42.832;23.918;2024-01-30T00:35:06;95076.31;;;-2.49;80.96
40592;BME280;26301;42.832;23.918;2024-01-30T00:37:32;95044.31;;;-2.74;81.53
40592;BME280;26301;42.832;23.918;2024-01-30T00:39:57;95075.38;;;-2.48;82.23
40592;BME280;26301;42.832;23.918;2024-01-30T00:42:23;95039.75;;;-2.69;82.05
40592;BME280;26301;42.832;23.918;2024-01-30T00:44:50;95070.19;;;-2.47;79.42
40592;BME280;26301;42.832;23.918;2024-01-30T00:47:16;95026.31;;;-2.70;77.57
40592;BME280;26301;42.832;23.918;2024-01-30T00:49:41;95067.44;;;-2.44;78.25
40592;BME280;26301;42.832;23.918;2024-01-30T00:52:06;95048.91;;;-2.56;78.23
40592;BME280;26301;42.832;23.918;2024-01-30T00:54:32;95043.56;;;-2.64;79.36
40592;BME280;26301;42.832;23.918;2024-01-30T00:56:57;95075.16;;;-2.45;77.46
40592;BME280;26301;42.832;23.918;2024-01-30T00:59:23;95039.81;;;-2.58;74.91
40592;BME280;26301;42.832;23.918;2024-01-30T01:01:48;95060.41;;;-2.51;74.58
40592;BME280;26301;42.832;23.918;2024-01-30T01:04:14;95077.69;;;-2.45;76.94
40592;BME280;26301;42.832;23.918;2024-01-30T01:06:39;95001.88;;;-2.82;75.89
40592;BME280;26301;42.832;23.918;2024-01-30T01:09:08;95016.13;;;-2.81;75.72
40592;BME280;26301;42.832;23.918;2024-01-30T01:11:33;95036.28;;;-2.68;74.31
40592;BME280;26301;42.832;23.918;2024-01-30T01:13:58;95075.53;;;-2.39;73.86
40592;BME280;26301;42.832;23.918;2024-01-30T01:16:24;95053.13;;;-2.56;74.20
40592;BME280;26301;42.832;23.918;2024-01-30T01:18:49;95077.34;;;-2.41;75.33
40592;BME280;26301;42.832;23.918;2024-01-30T01:21:15;95035.50;;;-2.69;75.40
40592;BME280;26301;42.832;23.918;2024-01-30T01:23:40;95072.56;;;-2.33;73.73
40592;BME280;26301;42.832;23.918;2024-01-30T01:26:07;95068.75;;;-2.38;73.77
40592;BME280;26301;42.832;23.918;2024-01-30T01:28:35;95025.97;;;-2.65;75.08
40592;BME280;26301;42.832;23.918;2024-01-30T01:31:00;95024.88;;;-2.74;74.86
40592;BME280;26301;42.832;23.918;2024-01-30T01:33:31;95068.16;;;-2.42;74.91
40592;BME280;26301;42.832;23.918;2024-01-30T01:35:58;95039.59;;;-2.55;73.71
40592;BME280;26301;42.832;23.918;2024-01-30T01:38:24;95048.34;;;-2.48;73.93
40592;BME280;26301;42.832;23.918;2024-01-30T01:40:49;95062.16;;;-2.41;74.72
40592;BME280;26301;42.832;23.918;2024-01-30T01:43:16;95041.56;;;-2.47;72.74
40592;BME280;26301;42.832;23.918;2024-01-30T01:45:42;95068.69;;;-2.25;69.98
40592;BME280;26301;42.832;23.918;2024-01-30T01:48:08;95021.38;;;-2.60;70.06
40592;BME280;26301;42.832;23.918;2024-01-30T01:50:34;95061.38;;;-2.41;71.83
40592;BME280;26301;42.832;23.918;2024-01-30T01:53:01;95070.97;;;-2.34;69.10
40592;BME280;26301;42.832;23.918;2024-01-30T01:55:29;95074.06;;;-2.30;70.31
40592;BME280;26301;42.832;23.918;2024-01-30T01:57:55;95059.63;;;-2.41;70.77
40592;BME280;26301;42.832;23.918;2024-01-30T02:00:20;95065.53;;;-2.40;73.20
40592;BME280;26301;42.832;23.918;2024-01-30T02:02:46;95038.94;;;-2.46;70.31
40592;BME280;26301;42.832;23.918;2024-01-30T02:05:12;95037.72;;;-2.64;71.83
40592;BME280;26301;42.832;23.918;2024-01-30T02:07:38;95080.06;;;-2.31;71.68
40592;BME280;26301;42.832;23.918;2024-01-30T02:10:04;95014.72;;;-2.61;68.89
40592;BME280;26301;42.832;23.918;2024-01-30T02:12:30;95059.41;;;-2.38;69.73
40592;BME280;26301;42.832;23.918;2024-01-30T02:14:55;95074.66;;;-2.26;68.56
40592;BME280;26301;42.832;23.918;2024-01-30T02:17:21;95028.41;;;-2.64;69.74
40592;BME280;26301;42.832;23.918;2024-01-30T02:19:48;95069.09;;;-2.43;70.22
40592;BME280;26301;42.832;23.918;2024-01-30T02:22:14;95028.53;;;-2.54;69.21
40592;BME280;26301;42.832;23.918;2024-01-30T02:24:40;95033.59;;;-2.54;68.09
40592;BME280;26301;42.832;23.918;2024-01-30T02:27:05;95069.75;;;-2.41;66.67
40592;BME280;26301;42.832;23.918;2024-01-30T02:29:31;94964.75;;;-3.06;68.91
40592;BME280;26301;42.832;23.918;2024-01-30T02:31:56;95040.25;;;-2.64;67.57
40592;BME280;26301;42.832;23.918;2024-01-30T02:34:22;95078.41;;;-2.43;67.55
40592;BME280;26301;42.832;23.918;2024-01-30T02:36:47;95073.81;;;-2.38;67.28
40592;BME280;26301;42.832;23.918;2024-01-30T02:39:13;95032.53;;;-2.63;67.87
40592;BME280;26301;42.832;23.918;2024-01-30T02:41:38;94950.38;;;-3.05;66.11
40592;BME280;26301;42.832;23.918;2024-01-30T02:44:04;95065.13;;;-2.23;66.01
40592;BME280;26301;42.832;23.918;2024-01-30T02:46:29;95055.78;;;-2.34;67.09
40592;BME280;26301;42.832;23.918;2024-01-30T02:48:55;95030.38;;;-2.56;67.20
40592;BME280;26301;42.832;23.918;2024-01-30T02:51:20;95057.44;;;-2.45;67.02
40592;BME280;26301;42.832;23.918;2024-01-30T02:53:46;95038.72;;;-2.67;66.33
40592;BME280;26301;42.832;23.918;2024-01-30T02:56:11;95068.72;;;-2.49;66.85
40592;BME280;26301;42.832;23.918;2024-01-30T02:58:39;95029.19;;;-2.63;67.30
40592;BME280;26301;42.832;23.918;2024-01-30T03:01:06;95033.13;;;-2.59;67.13
40592;BME280;26301;42.832;23.918;2024-01-30T03:03:31;95078.44;;;-2.32;67.23
40592;BME280;26301;42.832;23.918;2024-01-30T03:05:57;95070.63;;;-2.29;67.96
40592;BME280;26301;42.832;23.918;2024-01-30T03:08:22;95068.47;;;-2.22;66.23
40592;BME280;26301;42.832;23.918;2024-01-30T03:10:48;95073.31;;;-2.19;66.98
40592;BME280;26301;42.832;23.918;2024-01-30T03:13:13;95071.38;;;-2.16;67.39
40592;BME280;26301;42.832;23.918;2024-01-30T03:15:39;95046.44;;;-2.33;67.96
40592;BME280;26301;42.832;23.918;2024-01-30T03:18:05;95069.88;;;-2.18;66.84
40592;BME280;26301;42.832;23.918;2024-01-30T03:20:30;95069.16;;;-2.20;66.93
40592;BME280;26301;42.832;23.918;2024-01-30T03:22:56;95063.28;;;-2.21;67.44
40592;BME280;26301;42.832;23.918;2024-01-30T03:25:22;95036.44;;;-2.35;67.06
40592;BME280;26301;42.832;23.918;2024-01-30T03:27:47;95020.34;;;-2.34;66.22
40592;BME280;26301;42.832;23.918;2024-01-30T03:30:13;95029.66;;;-2.34;67.00
40592;BME280;26301;42.832;23.918;2024-01-30T03:32:38;95035.63;;;-2.35;67.36
40592;BME280;26301;42.832;23.918;2024-01-30T03:35:04;95032.06;;;-2.33;68.38
40592;BME280;26301;42.832;23.918;2024-01-30T03:37:31;95067.72;;;-2.00;66.07
40592;BME280;26301;42.832;23.918;2024-01-30T03:39:57;95065.41;;;-2.03;66.21
40592;BME280;26301;42.832;23.918;2024-01-30T03:42:22;95028.19;;;-2.25;67.18
40592;BME280;26301;42.832;23.918;2024-01-30T03:44:48;95056.63;;;-2.11;66.45
40592;BME280;26301;42.832;23.918;2024-01-30T03:47:13;95021.72;;;-2.30;65.20
40592;BME280;26301;42.832;23.918;2024-01-30T03:49:39;95056.63;;;-2.11;67.00
40592;BME280;26301;42.832;23.918;2024-01-30T03:52:05;95041.00;;;-2.16;65.91
40592;BME280;26301;42.832;23.918;2024-01-30T03:54:30;95028.03;;;-2.35;66.73
40592;BME280;26301;42.832;23.918;2024-01-30T03:56:56;95020.41;;;-2.46;65.98
40592;BME280;26301;42.832;23.918;2024-01-30T03:59:21;95021.34;;;-2.36;65.52
40592;BME280;26301;42.832;23.918;2024-01-30T04:01:52;95019.06;;;-2.39;65.33
40592;BME280;26301;42.832;23.918;2024-01-30T04:04:18;95063.28;;;-2.21;67.36
40592;BME280;26301;42.832;23.918;2024-01-30T04:06:44;95062.81;;;-2.26;65.51
40592;BME280;26301;42.832;23.918;2024-01-30T04:09:09;95046.31;;;-2.43;65.31
40592;BME280;26301;42.832;23.918;2024-01-30T04:11:36;95055.06;;;-2.36;66.54
40592;BME280;26301;42.832;23.918;2024-01-30T04:14:01;95061.19;;;-2.27;66.82
40592;BME280;26301;42.832;23.918;2024-01-30T04:16:27;95057.16;;;-2.30;67.07
40592;BME280;26301;42.832;23.918;2024-01-30T04:18:53;95016.25;;;-2.59;66.35
40592;BME280;26301;42.832;23.918;2024-01-30T04:21:18;95061.75;;;-2.35;67.04
40592;BME280;26301;42.832;23.918;2024-01-30T04:23:45;95054.75;;;-2.31;66.28
40592;BME280;26301;42.832;23.918;2024-01-30T04:26:11;95027.84;;;-2.56;66.88
40592;BME280;26301;42.832;23.918;2024-01-30T04:28:36;95020.31;;;-2.69;67.83
40592;BME280;26301;42.832;23.918;2024-01-30T04:31:02;95065.53;;;-2.40;67.71
40592;BME280;26301;42.832;23.918;2024-01-30T04:33:27;95036.41;;;-2.70;69.28
40592;BME280;26301;42.832;23.918;2024-01-30T04:35:53;95074.25;;;-2.44;68.30
40592;BME280;26301;42.832;23.918;2024-01-30T04:38:18;95039.03;;;-2.71;68.38
40592;BME280;26301;42.832;23.918;2024-01-30T04:40:43;95070.19;;;-2.47;67.52
40592;BME280;26301;42.832;23.918;2024-01-30T04:43:09;94944.41;;;-3.28;68.22
40592;BME280;26301;42.832;23.918;2024-01-30T04:45:34;95074.16;;;-2.43;66.97
40592;BME280;26301;42.832;23.918;2024-01-30T04:48:00;95085.06;;;-2.42;67.16
40592;BME280;26301;42.832;23.918;2024-01-30T04:50:25;95063.75;;;-2.51;67.37
40592;BME280;26301;42.832;23.918;2024-01-30T04:52:52;95057.75;;;-2.50;66.72
40592;BME280;26301;42.832;23.918;2024-01-30T04:55:17;95083.72;;;-2.35;66.65
40592;BME280;26301;42.832;23.918;2024-01-30T04:57:43;95061.34;;;-2.53;66.91
40592;BME280;26301;42.832;23.918;2024-01-30T05:00:09;95038.94;;;-2.70;67.78
40592;BME280;26301;42.832;23.918;2024-01-30T05:02:35;95038.94;;;-2.70;68.70
40592;BME280;26301;42.832;23.918;2024-01-30T05:05:00;95074.25;;;-2.44;66.76
40592;BME280;26301;42.832;23.918;2024-01-30T05:07:26;95089.69;;;-2.36;66.47
40592;BME280;26301;42.832;23.918;2024-01-30T05:09:51;95066.66;;;-2.44;67.18
40592;BME280;26301;42.832;23.918;2024-01-30T05:12:17;95085.34;;;-2.34;67.81
40592;BME280;26301;42.832;23.918;2024-01-30T05:14:42;95083.41;;;-2.31;65.98
40592;BME280;26301;42.832;23.918;2024-01-30T05:17:08;95092.06;;;-2.22;65.87
40592;BME280;26301;42.832;23.918;2024-01-30T05:19:35;95085.88;;;-2.42;66.91
40592;BME280;26301;42.832;23.918;2024-01-30T05:22:01;95091.53;;;-2.38;65.53
40592;BME280;26301;42.832;23.918;2024-01-30T05:24:26;95095.06;;;-2.41;66.77
40592;BME280;26301;42.832;23.918;2024-01-30T05:26:52;95074.09;;;-2.54;66.62
40592;BME280;26301;42.832;23.918;2024-01-30T05:29:17;95091.16;;;-2.45;66.44
40592;BME280;26301;42.832;23.918;2024-01-30T05:31:43;95101.06;;;-2.42;67.42
40592;BME280;26301;42.832;23.918;2024-01-30T05:34:08;95061.88;;;-2.60;66.66
40592;BME280;26301;42.832;23.918;2024-01-30T05:36:35;95078.94;;;-2.51;66.53
40592;BME280;26301;42.832;23.918;2024-01-30T05:39:00;95040.41;;;-2.79;66.52
40592;BME280;26301;42.832;23.918;2024-01-30T05:41:26;95062.72;;;-2.72;67.38
40592;BME280;26301;42.832;23.918;2024-01-30T05:43:54;95084.63;;;-2.60;66.60
40592;BME280;26301;42.832;23.918;2024-01-30T05:46:20;95092.38;;;-2.50;66.32
40592;BME280;26301;42.832;23.918;2024-01-30T05:48:45;95090.66;;;-2.50;66.50
40592;BME280;26301;42.832;23.918;2024-01-30T05:51:11;95066.94;;;-2.60;65.59
40592;BME280;26301;42.832;23.918;2024-01-30T05:53:36;95099.38;;;-2.30;65.36
40592;BME280;26301;42.832;23.918;2024-01-30T05:56:02;95088.53;;;-2.43;65.76
40592;BME280;26301;42.832;23.918;2024-01-30T05:58:28;95104.56;;;-2.32;66.57
40592;BME280;26301;42.832;23.918;2024-01-30T06:00:53;95095.25;;;-2.31;67.00
40592;BME280;26301;42.832;23.918;2024-01-30T06:03:19;95091.69;;;-2.28;67.80
40592;BME280;26301;42.832;23.918;2024-01-30T06:05:44;95102.19;;;-2.22;66.78
40592;BME280;26301;42.832;23.918;2024-01-30T06:08:10;95079.56;;;-2.36;66.92
40592;BME280;26301;42.832;23.918;2024-01-30T06:10:35;95090.56;;;-2.24;67.11
40592;BME280;26301;42.832;23.918;2024-01-30T06:13:01;95099.53;;;-2.20;67.65
40592;BME280;26301;42.832;23.918;2024-01-30T06:15:27;95101.16;;;-2.19;65.82
40592;BME280;26301;42.832;23.918;2024-01-30T06:17:55;95112.03;;;-2.06;65.54
40592;BME280;26301;42.832;23.918;2024-01-30T06:20:20;95070.75;;;-2.31;65.78
40592;BME280;26301;42.832;23.918;2024-01-30T06:22:45;95063.63;;;-2.25;66.59
40592;BME280;26301;42.832;23.918;2024-01-30T06:25:11;95078.75;;;-2.13;68.28
40592;BME280;26301;42.832;23.918;2024-01-30T06:27:37;95102.69;;;-2.05;66.08
40592;BME280;26301;42.832;23.918;2024-01-30T06:30:04;95084.94;;;-2.17;65.28
40592;BME280;26301;42.832;23.918;2024-01-30T06:32:29;95111.03;;;-1.92;64.25
40592;BME280;26301;42.832;23.918;2024-01-30T06:35:02;95066.75;;;-2.22;64.00
40592;BME280;26301;42.832;23.918;2024-01-30T06:37:27;95113.19;;;-1.99;66.04
40592;BME280;26301;42.832;23.918;2024-01-30T06:39:53;95109.53;;;-1.95;63.52
40592;BME280;26301;42.832;23.918;2024-01-30T06:42:18;95070.53;;;-2.27;64.40
40592;BME280;26301;42.832;23.918;2024-01-30T06:44:44;95122.88;;;-2.04;65.95
40592;BME280;26301;42.832;23.918;2024-01-30T06:47:10;95083.28;;;-2.29;65.03
40592;BME280;26301;42.832;23.918;2024-01-30T06:49:35;95072.91;;;-2.37;64.75
40592;BME280;26301;42.832;23.918;2024-01-30T06:52:05;95102.47;;;-2.02;63.22
40592;BME280;26301;42.832;23.918;2024-01-30T06:54:30;95079.19;;;-2.19;64.50
40592;BME280;26301;42.832;23.918;2024-01-30T06:56:56;95113.91;;;-1.97;62.69
40592;BME280;26301;42.832;23.918;2024-01-30T06:59:22;95090.84;;;-2.05;63.07
40592;BME280;26301;42.832;23.918;2024-01-30T07:01:47;95087.16;;;-2.12;62.49
40592;BME280;26301;42.832;23.918;2024-01-30T07:04:13;95107.81;;;-1.94;63.31
40592;BME280;26301;42.832;23.918;2024-01-30T07:06:38;95130.38;;;-1.91;62.97
40592;BME280;26301;42.832;23.918;2024-01-30T07:09:04;95115.63;;;-1.97;63.04
40592;BME280;26301;42.832;23.918;2024-01-30T07:11:30;95081.59;;;-2.17;64.22
40592;BME280;26301;42.832;23.918;2024-01-30T07:13:55;95075.28;;;-2.12;64.16
40592;BME280;26301;42.832;23.918;2024-01-30T07:16:21;95094.56;;;-1.98;63.93
40592;BME280;26301;42.832;23.918;2024-01-30T07:18:47;95090.59;;;-2.13;63.17
40592;BME280;26301;42.832;23.918;2024-01-30T07:21:13;95122.44;;;-1.87;63.48
40592;BME280;26301;42.832;23.918;2024-01-30T07:23:38;95117.28;;;-1.85;65.03
40592;BME280;26301;42.832;23.918;2024-01-30T07:26:05;95129.50;;;-1.79;65.27
40592;BME280;26301;42.832;23.918;2024-01-30T07:28:31;95091.59;;;-1.92;64.70
40592;BME280;26301;42.832;23.918;2024-01-30T07:30:57;95082.03;;;-1.88;64.61
40592;BME280;26301;42.832;23.918;2024-01-30T07:33:22;95115.13;;;-1.67;63.92
40592;BME280;26301;42.832;23.918;2024-01-30T07:35:48;95128.94;;;-1.60;64.27
40592;BME280;26301;42.832;23.918;2024-01-30T07:38:14;95115.94;;;-1.67;63.85
40592;BME280;26301;42.832;23.918;2024-01-30T07:40:39;95106.84;;;-1.58;63.98
40592;BME280;26301;42.832;23.918;2024-01-30T07:43:06;95106.63;;;-1.55;63.79
40592;BME280;26301;42.832;23.918;2024-01-30T07:45:31;95085.44;;;-1.65;64.35
40592;BME280;26301;42.832;23.918;2024-01-30T07:47:58;95075.38;;;-1.67;66.50
40592;BME280;26301;42.832;23.918;2024-01-30T07:50:25;95096.72;;;-1.47;65.54
40592;BME280;26301;42.832;23.918;2024-01-30T07:52:50;95112.16;;;-1.39;64.90
40592;BME280;26301;42.832;23.918;2024-01-30T07:55:20;95067.34;;;-1.49;64.19
40592;BME280;26301;42.832;23.918;2024-01-30T07:57:47;95104.09;;;-1.32;63.14
40592;BME280;26301;42.832;23.918;2024-01-30T08:00:13;95113.44;;;-1.22;63.94
40592;BME280;26301;42.832;23.918;2024-01-30T08:02:39;95110.44;;;-1.27;64.40
40592;BME280;26301;42.832;23.918;2024-01-30T08:05:21;95060.69;;;-1.50;63.97
40592;BME280;26301;42.832;23.918;2024-01-30T08:07:48;95103.66;;;-1.15;64.78
40592;BME280;26301;42.832;23.918;2024-01-30T08:10:14;95068.72;;;-1.45;65.56
40592;BME280;26301;42.832;23.918;2024-01-30T08:12:39;95097.19;;;-1.19;66.58
40592;BME280;26301;42.832;23.918;2024-01-30T08:15:05;95095.56;;;-1.09;64.61
40592;BME280;26301;42.832;23.918;2024-01-30T08:17:31;95106.28;;;-1.05;64.80
40592;BME280;26301;42.832;23.918;2024-01-30T08:19:56;95093.28;;;-1.01;63.98
40592;BME280;26301;42.832;23.918;2024-01-30T08:22:22;95070.34;;;-1.10;63.87
40592;BME280;26301;42.832;23.918;2024-01-30T08:24:47;95078.84;;;-1.11;63.89
40592;BME280;26301;42.832;23.918;2024-01-30T08:27:13;95089.94;;;-1.12;62.76
40592;BME280;26301;42.832;23.918;2024-01-30T08:29:38;95111.69;;;-0.87;63.32
40592;BME280;26301;42.832;23.918;2024-01-30T08:32:05;95110.91;;;-0.88;64.02
40592;BME280;26301;42.832;23.918;2024-01-30T08:34:31;95071.38;;;-1.02;63.19
40592;BME280;26301;42.832;23.918;2024-01-30T08:36:57;95120.47;;;-0.69;61.03
40592;BME280;26301;42.832;23.918;2024-01-30T08:39:23;95094.06;;;-0.89;61.81
40592;BME280;26301;42.832;23.918;2024-01-30T08:41:48;95072.19;;;-1.01;62.86
40592;BME280;26301;42.832;23.918;2024-01-30T08:44:14;95118.25;;;-0.62;63.48
40592;BME280;26301;42.832;23.918;2024-01-30T08:46:39;95121.47;;;-0.60;60.52
40592;BME280;26301;42.832;23.918;2024-01-30T08:49:05;95118.50;;;-0.77;62.22
40592;BME280;26301;42.832;23.918;2024-01-30T08:51:30;95105.47;;;-0.83;62.65
40592;BME280;26301;42.832;23.918;2024-01-30T08:53:56;95125.31;;;-0.77;61.48
40592;BME280;26301;42.832;23.918;2024-01-30T08:56:22;95121.13;;;-0.67;61.90
40592;BME280;26301;42.832;23.918;2024-01-30T08:58:47;95117.47;;;-0.74;62.99
40592;BME280;26301;42.832;23.918;2024-01-30T09:01:13;95091.63;;;-0.90;63.63
40592;BME280;26301;42.832;23.918;2024-01-30T09:03:39;95101.34;;;-0.96;64.75
40592;BME280;26301;42.832;23.918;2024-01-30T09:06:10;95080.94;;;-1.17;63.42
40592;BME280;26301;42.832;23.918;2024-01-30T09:08:35;95076.31;;;-1.11;63.02
40592;BME280;26301;42.832;23.918;2024-01-30T09:11:02;95108.03;;;-0.95;63.43
40592;BME280;26301;42.832;23.918;2024-01-30T09:13:33;95114.59;;;-0.92;64.48
40592;BME280;26301;42.832;23.918;2024-01-30T09:15:58;95117.25;;;-0.82;64.64
40592;BME280;26301;42.832;23.918;2024-01-30T09:18:24;95090.88;;;-1.02;65.25
40592;BME280;26301;42.832;23.918;2024-01-30T09:20:49;95109.53;;;-0.81;66.26
40592;BME280;26301;42.832;23.918;2024-01-30T09:23:15;95077.72;;;-0.96;64.29
40592;BME280;26301;42.832;23.918;2024-01-30T09:25:40;95113.09;;;-0.72;63.10
40592;BME280;26301;42.832;23.918;2024-01-30T09:28:06;95077.25;;;-1.01;63.78
40592;BME280;26301;42.832;23.918;2024-01-30T09:30:31;95099.38;;;-0.81;62.98
40592;BME280;26301;42.832;23.918;2024-01-30T09:32:56;95109.72;;;-0.73;63.33
40592;BME280;26301;42.832;23.918;2024-01-30T09:35:22;95113.91;;;-0.94;63.70
40592;BME280;26301;42.832;23.918;2024-01-30T09:37:47;95113.31;;;-0.75;62.85
40592;BME280;26301;42.832;23.918;2024-01-30T09:40:14;95079.56;;;-0.98;62.17
40592;BME280;26301;42.832;23.918;2024-01-30T09:42:46;95068.72;;;-1.00;62.33
40592;BME280;26301;42.832;23.918;2024-01-30T09:45:13;95109.53;;;-0.81;64.39
40592;BME280;26301;42.832;23.918;2024-01-30T09:47:43;95062.03;;;-1.12;62.60
40592;BME280;26301;42.832;23.918;2024-01-30T09:50:10;95073.44;;;-0.96;61.39
40592;BME280;26301;42.832;23.918;2024-01-30T09:52:36;95095.91;;;-0.80;61.32
40592;BME280;26301;42.832;23.918;2024-01-30T09:55:03;95096.69;;;-0.68;60.78
40592;BME280;26301;42.832;23.918;2024-01-30T09:57:28;95093.53;;;-0.60;61.16
40592;BME280;26301;42.832;23.918;2024-01-30T09:59:54;95094.56;;;-0.52;63.06
40592;BME280;26301;42.832;23.918;2024-01-30T10:02:20;95037.44;;;-0.78;60.36
40592;BME280;26301;42.832;23.918;2024-01-30T10:04:50;95071.53;;;-0.60;59.43
40592;BME280;26301;42.832;23.918;2024-01-30T10:07:20;95052.44;;;-0.86;59.05
40592;BME280;26301;42.832;23.918;2024-01-30T10:09:46;95103.25;;;-0.65;59.27
40592;BME280;26301;42.832;23.918;2024-01-30T10:12:12;95066.81;;;-0.76;58.04
40592;BME280;26301;42.832;23.918;2024-01-30T10:14:39;95092.63;;;-0.59;58.73
40592;BME280;26301;42.832;23.918;2024-01-30T10:17:04;95048.97;;;-0.97;59.38
40592;BME280;26301;42.832;23.918;2024-01-30T10:19:31;95098.50;;;-0.59;59.34
40592;BME280;26301;42.832;23.918;2024-01-30T10:21:56;95113.59;;;-0.46;58.29
40592;BME280;26301;42.832;23.918;2024-01-30T10:24:25;95056.91;;;-0.79;57.99
40592;BME280;26301;42.832;23.918;2024-01-30T10:26:51;95061.03;;;-0.66;59.48
40592;BME280;26301;42.832;23.918;2024-01-30T10:29:18;95088.44;;;-0.49;58.90
40592;BME280;26301;42.832;23.918;2024-01-30T10:31:43;95097.25;;;-0.53;58.86
40592;BME280;26301;42.832;23.918;2024-01-30T10:34:09;95108.59;;;-0.36;58.80
40592;BME280;26301;42.832;23.918;2024-01-30T10:36:39;95107.06;;;-0.28;56.08
40592;BME280;26301;42.832;23.918;2024-01-30T10:39:07;95099.28;;;-0.47;58.21
40592;BME280;26301;42.832;23.918;2024-01-30T10:41:43;95103.34;;;-0.56;58.67
40592;BME280;26301;42.832;23.918;2024-01-30T10:44:10;95093.75;;;-0.52;58.54
40592;BME280;26301;42.832;23.918;2024-01-30T10:46:38;95101.66;;;-0.34;56.93
40592;BME280;26301;42.832;23.918;2024-01-30T10:49:04;95107.78;;;-0.37;58.94
40592;BME280;26301;42.832;23.918;2024-01-30T10:51:31;95099.41;;;-0.49;58.74
40592;BME280;26301;42.832;23.918;2024-01-30T10:53:57;95092.88;;;-0.30;58.75
40592;BME280;26301;42.832;23.918;2024-01-30T10:56:24;95081.50;;;-0.36;59.72
40592;BME280;26301;42.832;23.918;2024-01-30T10:58:53;95081.19;;;-0.21;59.39
40592;BME280;26301;42.832;23.918;2024-01-30T11:01:22;95070.97;;;-0.31;58.73
40592;BME280;26301;42.832;23.918;2024-01-30T11:03:51;95059.50;;;-0.26;58.96
40592;BME280;26301;42.832;23.918;2024-01-30T11:06:17;95069.06;;;-0.18;59.62
40592;BME280;26301;42.832;23.918;2024-01-30T11:08:45;95022.59;;;-0.30;58.01
40592;BME280;26301;42.832;23.918;2024-01-30T11:11:11;95031.13;;;-0.31;60.51
40592;BME280;26301;42.832;23.918;2024-01-30T11:13:37;95044.97;;;-0.24;60.85
40592;BME280;26301;42.832;23.918;2024-01-30T11:16:03;95009.31;;;-0.33;60.64
40592;BME280;26301;42.832;23.918;2024-01-30T11:18:30;95052.91;;;0.04;59.93
40592;BME280;26301;42.832;23.918;2024-01-30T11:20:57;95039.25;;;0.05;58.87
40592;BME280;26301;42.832;23.918;2024-01-30T11:23:23;95040.06;;;0.27;59.60
40592;BME280;26301;42.832;23.918;2024-01-30T11:25:49;95043.81;;;0.53;59.03
40592;BME280;26301;42.832;23.918;2024-01-30T11:28:15;95022.25;;;0.27;57.48
40592;BME280;26301;42.832;23.918;2024-01-30T11:30:42;94987.66;;;0.05;58.40
40592;BME280;26301;42.832;23.918;2024-01-30T11:33:09;95021.91;;;0.31;60.88
40592;BME280;26301;42.832;23.918;2024-01-30T11:35:38;95031.94;;;0.33;58.50
40592;BME280;26301;42.832;23.918;2024-01-30T11:38:05;94999.91;;;0.20;60.21
40592;BME280;26301;42.832;23.918;2024-01-30T11:40:32;95044.03;;;0.40;60.77
40592;BME280;26301;42.832;23.918;2024-01-30T11:42:59;95010.91;;;0.00;58.42
40592;BME280;26301;42.832;23.918;2024-01-30T11:45:26;95043.47;;;0.37;59.54
40592;BME280;26301;42.832;23.918;2024-01-30T11:47:53;95032.63;;;0.35;61.21
40592;BME280;26301;42.832;23.918;2024-01-30T11:50:18;95035.50;;;0.51;62.49
40592;BME280;26301;42.832;23.918;2024-01-30T11:52:44;95034.69;;;0.51;60.91
40592;BME280;26301;42.832;23.918;2024-01-30T11:55:10;95035.59;;;0.40;59.74
40592;BME280;26301;42.832;23.918;2024-01-30T11:57:35;95029.53;;;0.31;62.44
40592;BME280;26301;42.832;23.918;2024-01-30T12:00:05;95034.97;;;0.27;61.82
40592;BME280;26301;42.832;23.918;2024-01-30T12:02:39;95005.44;;;0.05;61.79
40592;BME280;26301;42.832;23.918;2024-01-30T12:05:07;95009.31;;;0.09;61.83
40592;BME280;26301;42.832;23.918;2024-01-30T12:07:34;95025.50;;;0.29;60.72
40592;BME280;26301;42.832;23.918;2024-01-30T12:10:00;94988.88;;;0.10;61.61
40592;BME280;26301;42.832;23.918;2024-01-30T12:12:26;94988.84;;;0.01;61.43
40592;BME280;26301;42.832;23.918;2024-01-30T12:14:52;95012.78;;;0.29;62.11
40592;BME280;26301;42.832;23.918;2024-01-30T12:17:28;94990.66;;;0.19;61.43
40592;BME280;26301;42.832;23.918;2024-01-30T12:20:10;95018.44;;;0.42;58.74
40592;BME280;26301;42.832;23.918;2024-01-30T12:22:37;94998.47;;;0.28;60.05
40592;BME280;26301;42.832;23.918;2024-01-30T12:25:08;95016.09;;;0.19;60.20
40592;BME280;26301;42.832;23.918;2024-01-30T12:27:34;94967.59;;;-0.40;59.90
40592;BME280;26301;42.832;23.918;2024-01-30T12:29:59;94970.69;;;-0.37;60.96
40592;BME280;26301;42.832;23.918;2024-01-30T12:32:25;95019.06;;;-0.17;59.98
40592;BME280;26301;42.832;23.918;2024-01-30T12:34:54;94968.03;;;-0.35;59.81
40592;BME280;26301;42.832;23.918;2024-01-30T12:37:20;94984.88;;;-0.13;60.23
40592;BME280;26301;42.832;23.918;2024-01-30T12:39:48;94993.19;;;-0.11;60.96
40592;BME280;26301;42.832;23.918;2024-01-30T12:42:14;95005.69;;;0.02;60.47
40592;BME280;26301;42.832;23.918;2024-01-30T12:44:40;94965.19;;;-0.21;61.75